This demonstration page uses our WeatherBlox Daily Observations layout. Learn more.

39.29038, -76.61219

Hourly Observations for April 23, 2016

Temp ( °F °C ) Dew Point ( °F °C ) Humidity (%) Winds ( mph kmh ) Pressure ( in mb ) Visibility ( mi km ) Precip ( " mm )
12:54 am 00:54 undefined 65 18.3 60 15.6 84 84 undefined N/A 29.84 1010 N/A 0 0
1:54 am 01:54 undefined 65 18.3 60 15.6 84 84 undefined N/A 29.81 1010 N/A 0 0
2:54 am 02:54 undefined 65 18.3 60 15.6 84 84 undefined N/A 29.8 1009 N/A 0 0
3:54 am 03:54 undefined 66 18.9 60 15.6 81 81 undefined N/A 29.8 1009 N/A 0 0
4:54 am 04:54 undefined 65 18.3 58 14.4 78 78 undefined N/A 29.8 1009 N/A 0 0
5:54 am 05:54 undefined 65 18.3 57 13.9 76 76 undefined N/A 29.8 1009 N/A 0 0
6:54 am 06:54 undefined 63 17.2 57 13.9 81 81 undefined N/A 29.82 1010 N/A 0 0
7:54 am 07:54 undefined 63 17.2 57 13.9 81 81 undefined N/A 29.83 1010 N/A 0 0
8:54 am 08:54 undefined 63 17.2 57 13.9 81 81 undefined N/A 29.85 1011 N/A 0 0
9:54 am 09:54 undefined 63 17.2 56 13.3 78 78 undefined N/A 29.87 1012 N/A 0 0
10:54 am 10:54 undefined 62 16.7 56 13.3 80 80 undefined N/A 29.89 1012 N/A 0 0
11:54 am 11:54 undefined 62 16.7 55 12.8 78 78 undefined N/A 29.9 1012 N/A 0.03 0.762
12:54 pm 12:54 undefined 64 17.8 52 11.1 65 65 undefined N/A 29.89 1012 N/A 0 0
1:54 pm 13:54 undefined 66 18.9 50 10 56 56 undefined N/A 29.88 1012 N/A 0 0
2:54 pm 14:54 undefined 67 19.4 47 8.3 49 49 undefined N/A 29.88 1012 N/A 0 0
3:54 pm 15:54 undefined 69 20.6 46 7.8 44 44 undefined N/A 29.86 1011 N/A 0 0
4:54 pm 16:54 undefined 69 20.6 41 5 36 36 undefined N/A 29.88 1012 N/A 0 0
5:54 pm 17:54 undefined 67 19.4 34 1.1 30 30 undefined N/A 29.9 1013 N/A 0 0
6:54 pm 18:54 undefined 65 18.3 34 1.1 32 32 undefined N/A 29.92 1013 N/A 0 0
7:54 pm 19:54 undefined 63 17.2 34 1.1 34 34 undefined N/A 29.94 1014 N/A 0 0
8:54 pm 20:54 undefined 62 16.7 31 -0.6 31 31 undefined N/A 29.96 1015 N/A 0 0
9:54 pm 21:54 undefined 59 15 33 0.6 38 38 undefined N/A 29.98 1015 N/A 0 0
10:54 pm 22:54 undefined 58 14.4 32 0 38 38 undefined N/A 30 1016 N/A 0 0
11:54 pm 23:54 undefined 56 13.3 31 -0.6 39 39 undefined N/A 30.01 1016 N/A 0 0

Powered by AerisWeather